Herveld, Netherlands
Current Conditions -  °F | °C
As of 12:25 AM on Thursday 23 Oct 2014 (Local Time) from EHDL Reporting Station
Haze Haze  
Wind Chill: 43°   Ceiling: 4700
Heat Index: 43°   Visibility: 6mi
Dew Point: 43°   Wind: 1mph
Humidity: 100%   Direction: 180°S
Pressure: 30.15"   Gusts: NA
Location:  51.91°N, 5.75°E
Report Text: EHDL 222225Z AUTO 18001KT 9000 BR BKN047 06/06 Q1021 BLU
Loading
Personal Weather Stations






























Interactive Weather Map
Tropical Storm Tracking
New forecast layout! Learn more

10-Day Weather Forecast

Advertisements
Track Severe Weather on mobile